Time;durP1;ratioP1;P1;durP2;ratioP2;P2;SDS_P1;SDS_P2;PMS_P1;PMS_P2;Temp;Humidity;BMP_temperature;BMP_pressure;BME280_temperature;BME280_humidity;BME280_pressure;Samples;Min_cycle;Max_cycle;Signal;HPM_P1;HPM_P2
2021/05/11 00:01:49;;;;;;;12.63;7.63;;;;;;;12.90;100.00;99623.78;20819966;28;20045;-73
2021/05/11 00:11:50;;;;;;;10.35;7.00;;;;;;;12.77;100.00;99595.00;20795891;28;20048;-73
2021/05/11 00:21:52;;;;;;;11.27;7.25;;;;;;;12.76;100.00;99595.94;20806952;28;20467;-71
2021/05/11 00:31:53;;;;;;;13.10;7.85;;;;;;;12.68;100.00;99600.13;20828885;28;20096;-72
2021/05/11 00:41:54;;;;;;;19.83;11.73;;;;;;;12.62;100.00;99609.28;20794603;28;20129;-72
2021/05/11 00:51:56;;;;;;;13.98;8.98;;;;;;;12.52;100.00;99599.59;20818011;28;20045;-72
2021/05/11 01:02:00;;;;;;;12.60;8.77;;;;;;;12.44;100.00;99610.69;20833710;28;20061;-72
2021/05/11 01:12:02;;;;;;;14.33;9.27;;;;;;;12.36;100.00;99599.91;20832935;28;20092;-71
2021/05/11 01:22:33;;;;;;;14.80;8.98;;;;;;;12.33;100.00;99576.50;20824801;28;20048;-72
2021/05/11 01:53:37;;;;;;;10.90;6.68;;;;;;;12.21;100.00;99561.66;20823477;28;20045;-71
2021/05/11 02:24:11;;;;;;;14.55;7.50;;;;;;;12.20;100.00;99554.75;20815308;28;20487;-72
2021/05/11 02:34:13;;;;;;;10.00;5.85;;;;;;;12.20;100.00;99560.00;20819499;28;20041;-72
2021/05/11 02:44:17;;;;;;;8.63;5.13;;;;;;;12.15;100.00;99562.13;20822584;28;20096;-73
2021/05/11 02:54:18;;;;;;;7.85;5.15;;;;;;;12.10;100.00;99544.09;20819084;28;20045;-72
2021/05/11 03:04:20;;;;;;;8.68;5.30;;;;;;;12.13;100.00;99556.16;20820251;28;20053;-73
2021/05/11 03:14:22;;;;;;;8.35;5.60;;;;;;;12.14;100.00;99537.66;20808504;28;20054;-73
2021/05/11 03:24:24;;;;;;;13.02;6.50;;;;;;;12.14;100.00;99518.50;20800421;28;20045;-72
2021/05/11 03:34:25;;;;;;;7.57;5.35;;;;;;;11.98;100.00;99509.16;20839260;28;20056;-72
2021/05/11 03:44:28;;;;;;;10.15;6.32;;;;;;;11.80;100.00;99476.41;20810717;28;20053;-72
2021/05/11 03:54:32;;;;;;;8.18;6.05;;;;;;;11.77;100.00;99509.88;20813116;28;20068;-72
2021/05/11 04:04:34;;;;;;;8.27;5.70;;;;;;;11.80;100.00;99491.28;20797942;28;20061;-71
2021/05/11 04:24:56;;;;;;;9.80;6.63;;;;;;;11.67;100.00;99509.69;20782125;28;20042;-72
2021/05/11 04:34:58;;;;;;;9.93;6.25;;;;;;;11.73;100.00;99516.31;20821401;28;20042;-71
2021/05/11 04:45:01;;;;;;;10.90;6.68;;;;;;;11.86;100.00;99483.81;20824390;28;20056;-72
2021/05/11 04:55:02;;;;;;;7.57;5.20;;;;;;;11.96;100.00;99489.22;20815526;28;20041;-71
2021/05/11 05:05:04;;;;;;;7.85;5.20;;;;;;;12.11;100.00;99498.56;20824424;28;20042;-71
2021/05/11 05:15:06;;;;;;;7.95;5.10;;;;;;;12.29;100.00;99483.25;20815652;28;20052;-71
2021/05/11 05:25:28;;;;;;;7.07;4.80;;;;;;;12.48;100.00;99501.88;20824809;28;20053;-72
2021/05/11 05:35:32;;;;;;;7.95;5.32;;;;;;;12.79;100.00;99516.94;20809689;28;20068;-72
2021/05/11 05:45:34;;;;;;;9.18;5.88;;;;;;;12.63;100.00;99526.97;20822349;28;20100;-71
2021/05/11 05:55:37;;;;;;;7.45;5.38;;;;;;;12.55;100.00;99502.22;20821913;28;20049;-74
2021/05/11 06:05:39;;;;;;;5.45;3.65;;;;;;;12.79;100.00;99511.69;20838969;28;20095;-73
2021/05/11 06:26:00;;;;;;;6.28;3.33;;;;;;;12.85;100.00;99534.84;20822570;28;20053;-71
2021/05/11 06:36:04;;;;;;;6.55;2.83;;;;;;;12.87;100.00;99495.31;20840578;28;20080;-71
2021/05/11 06:47:02;;;;;;;6.93;4.85;;;;;;;12.69;100.00;99466.09;20838971;28;20478;-71
2021/05/11 06:56:47;;;;;;;5.82;4.30;;;;;;;12.70;100.00;99454.63;20847601;28;20057;-71
2021/05/11 07:06:49;;;;;;;6.43;4.40;;;;;;;13.17;100.00;99458.78;20821958;28;20065;-72
2021/05/11 07:16:51;;;;;;;7.13;4.68;;;;;;;13.32;100.00;99471.66;20840941;28;20049;-72
2021/05/11 07:37:00;;;;;;;6.30;3.53;;;;;;;12.87;100.00;99453.31;20814608;28;20516;-73
2021/05/11 07:47:11;;;;;;;6.63;4.03;;;;;;;13.36;100.00;99458.13;20821487;28;20042;-73
2021/05/11 08:17:38;;;;;;;4.80;2.67;;;;;;;14.86;98.42;99440.19;20827324;28;20500;-72
2021/05/11 08:27:45;;;;;;;4.93;2.92;;;;;;;14.86;96.34;99431.44;20826733;28;20081;-72
2021/05/11 08:37:47;;;;;;;7.63;2.92;;;;;;;14.90;100.00;99428.41;20829680;28;20516;-72
2021/05/11 08:47:49;;;;;;;13.55;3.17;;;;;;;14.70;97.97;99433.75;20834436;28;20041;-72
2021/05/11 10:01:30;;;;;;;11.35;3.13;;;;;;;14.69;100.00;99471.56;20815925;28;20052;-69
2021/05/11 10:53:32;;;;;;;6.65;2.70;;;;;;;14.96;96.81;99506.94;20815520;28;20046;-69
2021/05/11 11:03:38;;;;;;;5.20;2.22;;;;;;;15.02;93.07;99521.38;20821135;28;20049;-69
2021/05/11 11:13:46;;;;;;;4.97;1.60;;;;;;;15.04;95.94;99529.13;20813849;28;20133;-69
2021/05/11 11:23:53;;;;;;;11.02;2.22;;;;;;;15.09;94.91;99563.84;20814542;28;20076;-70
2021/05/11 11:34:13;;;;;;;3.58;1.60;;;;;;;14.49;100.00;99584.72;20799736;28;20628;-69
2021/05/11 11:44:20;;;;;;;2.17;0.95;;;;;;;14.12;100.00;99591.31;20806059;28;20053;-69
2021/05/11 11:54:33;;;;;;;4.20;1.85;;;;;;;13.62;100.00;99569.94;20802431;28;20050;-69
2021/05/11 12:04:36;;;;;;;2.47;1.40;;;;;;;13.56;100.00;99559.91;20795929;28;20041;-70
2021/05/11 12:14:38;;;;;;;2.35;1.20;;;;;;;13.49;100.00;99568.41;20782903;28;20042;-70
2021/05/11 12:24:41;;;;;;;3.88;1.58;;;;;;;13.56;100.00;99586.19;20798947;28;20459;-70
2021/05/11 12:34:43;;;;;;;6.13;1.95;;;;;;;13.43;100.00;99543.44;20802625;28;20100;-70
2021/05/11 12:44:47;;;;;;;4.18;1.50;;;;;;;13.43;100.00;99518.94;20806036;28;20049;-70
2021/05/11 12:54:51;;;;;;;5.40;2.20;;;;;;;13.58;100.00;99499.31;20820920;28;20049;-69
2021/05/11 13:09:21;;;;;;;3.72;1.67;;;;;;;13.70;100.00;99485.19;20803171;28;20049;-69
2021/05/11 13:25:53;;;;;;;4.65;2.00;;;;;;;14.05;100.00;99542.78;20802217;28;20038;-69
2021/05/11 13:35:55;;;;;;;3.78;2.40;;;;;;;14.21;100.00;99543.19;20809928;28;20076;-70
2021/05/11 13:45:56;;;;;;;7.82;2.33;;;;;;;14.07;100.00;99561.91;20799300;28;20046;-70
2021/05/11 14:06:35;;;;;;;4.18;1.92;;;;;;;14.16;100.00;99598.00;20718363;28;20042;-69
2021/05/11 14:16:38;;;;;;;3.25;1.60;;;;;;;14.11;100.00;99587.03;20826935;28;20049;-69
2021/05/11 14:26:40;;;;;;;5.72;1.98;;;;;;;14.06;100.00;99589.19;20802851;28;20069;-70
2021/05/11 14:36:42;;;;;;;4.22;2.03;;;;;;;14.22;100.00;99591.41;20802138;28;20041;-70
2021/05/11 14:46:44;;;;;;;5.03;2.85;;;;;;;14.30;100.00;99589.81;20809853;28;20417;-70
2021/05/11 14:56:46;;;;;;;3.28;1.50;;;;;;;14.08;100.00;99576.72;20795328;28;20140;-70
2021/05/11 15:06:50;;;;;;;4.32;1.20;;;;;;;13.98;100.00;99570.56;20803929;28;20053;-70
2021/05/11 15:17:57;;;;;;;5.37;1.80;;;;;;;14.01;100.00;99560.63;20810275;28;20500;-70
2021/05/11 15:27:16;;;;;;;3.50;1.90;;;;;;;13.95;100.00;99568.19;20811508;28;20048;-70
2021/05/11 15:37:22;;;;;;;4.53;2.30;;;;;;;13.97;100.00;99572.34;20798585;28;20048;-70
2021/05/11 15:47:24;;;;;;;4.63;1.75;;;;;;;13.82;100.00;99581.47;20815490;28;20049;-70
2021/05/11 15:57:26;;;;;;;4.28;2.10;;;;;;;13.72;100.00;99585.81;20813303;28;20061;-70
2021/05/11 16:07:28;;;;;;;3.65;1.75;;;;;;;13.65;100.00;99611.78;20811110;28;20124;-70
2021/05/11 16:17:30;;;;;;;4.65;2.40;;;;;;;13.74;100.00;99607.56;20816207;28;20060;-69
2021/05/11 16:27:32;;;;;;;8.77;5.07;;;;;;;13.77;100.00;99603.84;20820906;28;20049;-70
2021/05/11 16:37:35;;;;;;;7.22;3.30;;;;;;;13.74;100.00;99614.63;20823914;28;20049;-70
2021/05/11 16:48:02;;;;;;;7.47;3.10;;;;;;;13.70;100.00;99617.50;20831550;28;20096;-70
2021/05/11 16:58:03;;;;;;;5.40;2.85;;;;;;;13.66;100.00;99634.47;20838238;28;20136;-70
2021/05/11 17:08:06;;;;;;;7.72;4.30;;;;;;;13.62;100.00;99638.31;20807566;28;20049;-71
2021/05/11 17:18:08;;;;;;;6.05;3.20;;;;;;;13.49;100.00;99637.59;20807774;28;20076;-71
2021/05/11 17:28:11;;;;;;;6.18;3.60;;;;;;;13.42;100.00;99656.59;20851093;28;20041;-71
2021/05/11 17:38:20;;;;;;;7.65;3.85;;;;;;;13.41;100.00;99662.84;20820917;28;20049;-70
2021/05/11 17:48:24;;;;;;;6.00;4.07;;;;;;;13.41;100.00;99678.59;20828306;28;20408;-71
2021/05/11 17:58:27;;;;;;;8.47;4.00;;;;;;;13.33;100.00;99676.56;20847185;28;20053;-70
2021/05/11 18:08:32;;;;;;;6.72;4.55;;;;;;;13.25;100.00;99678.94;20825914;28;20318;-70
2021/05/11 18:18:33;;;;;;;6.40;3.87;;;;;;;13.16;100.00;99682.25;20830948;28;20250;-68
2021/05/11 18:28:35;;;;;;;6.38;3.97;;;;;;;13.08;100.00;99695.97;20813016;28;20060;-71
2021/05/11 18:38:41;;;;;;;7.43;3.90;;;;;;;12.97;100.00;99702.97;20829225;28;20490;-70
2021/05/11 18:48:43;;;;;;;8.75;3.40;;;;;;;12.83;100.00;99710.09;20813168;28;20429;-71
2021/05/11 18:58:45;;;;;;;5.70;3.40;;;;;;;12.79;100.00;99723.56;20816193;28;20141;-71
2021/05/11 19:08:47;;;;;;;6.28;3.80;;;;;;;12.69;100.00;99746.22;20820826;28;20455;-72
2021/05/11 19:18:50;;;;;;;4.75;3.13;;;;;;;12.64;100.00;99746.56;20826606;28;20487;-71
2021/05/11 19:28:52;;;;;;;7.30;4.20;;;;;;;12.51;100.00;99752.78;20827167;28;20045;-71
2021/05/11 19:38:54;;;;;;;11.38;7.05;;;;;;;12.57;100.00;99779.44;20819078;28;20107;-72
2021/05/11 19:48:56;;;;;;;8.45;5.78;;;;;;;12.52;100.00;99775.47;20855969;28;20095;-70
2021/05/11 19:58:58;;;;;;;8.05;5.10;;;;;;;12.50;100.00;99787.84;20828681;28;20053;-70
2021/05/11 20:09:00;;;;;;;8.20;4.60;;;;;;;12.44;100.00;99789.97;20814250;28;20046;-70
2021/05/11 20:19:04;;;;;;;8.85;4.30;;;;;;;12.37;100.00;99801.03;20808431;28;20065;-72
2021/05/11 20:29:07;;;;;;;8.35;4.63;;;;;;;12.33;100.00;99802.19;20805287;28;20056;-71
2021/05/11 20:39:09;;;;;;;7.22;4.40;;;;;;;12.34;100.00;99799.44;20829307;28;20037;-70
2021/05/11 20:49:11;;;;;;;7.43;4.50;;;;;;;12.23;100.00;99795.94;20821218;28;20049;-70
2021/05/11 20:59:13;;;;;;;8.50;4.88;;;;;;;12.16;100.00;99813.88;20831705;28;20045;-71
2021/05/11 21:09:15;;;;;;;8.77;4.95;;;;;;;12.16;100.00;99802.53;20829672;28;20072;-71
2021/05/11 21:19:18;;;;;;;9.52;5.38;;;;;;;12.19;100.00;99802.34;20856942;28;20309;-71
2021/05/11 21:29:20;;;;;;;10.13;6.07;;;;;;;12.18;100.00;99804.13;20844693;28;20092;-71
2021/05/11 21:39:21;;;;;;;12.45;7.68;;;;;;;12.21;100.00;99809.13;20827551;28;20037;-71
2021/05/11 21:49:23;;;;;;;14.25;7.93;;;;;;;12.13;100.00;99829.84;20810807;28;20111;-71
2021/05/11 21:59:25;;;;;;;16.02;10.00;;;;;;;12.10;100.00;99821.31;20839635;28;20456;-71
2021/05/11 22:09:28;;;;;;;17.30;9.93;;;;;;;12.13;100.00;99831.63;20818288;28;20037;-70
2021/05/11 22:19:29;;;;;;;17.45;11.80;;;;;;;12.10;100.00;99830.03;20819763;28;20456;-71
2021/05/11 22:29:31;;;;;;;16.13;10.93;;;;;;;12.06;100.00;99841.69;20834483;28;20563;-71
2021/05/11 22:39:33;;;;;;;15.82;10.75;;;;;;;12.04;100.00;99840.94;20821406;28;20042;-71
2021/05/11 22:49:35;;;;;;;19.58;11.48;;;;;;;12.10;100.00;99853.66;20818412;28;20050;-70
2021/05/11 22:59:37;;;;;;;17.75;11.70;;;;;;;12.03;100.00;99857.66;20830757;28;20053;-71
2021/05/11 23:09:39;;;;;;;16.10;9.55;;;;;;;11.89;100.00;99866.44;20820998;28;20512;-70
2021/05/11 23:19:41;;;;;;;14.30;8.68;;;;;;;11.85;100.00;99885.13;20814582;28;20054;-71
2021/05/11 23:29:42;;;;;;;12.63;8.07;;;;;;;11.84;100.00;99880.81;20829416;28;20591;-70
2021/05/11 23:39:44;;;;;;;9.95;5.03;;;;;;;11.73;100.00;99888.59;20811531;28;20448;-72
2021/05/11 23:49:47;;;;;;;6.25;3.67;;;;;;;11.57;100.00;99891.34;20801059;28;20489;-72
2021/05/11 23:59:49;;;;;;;8.70;3.05;;;;;;;11.57;100.00;99892.19;20836325;28;20052;-71
